Time;durP1;ratioP1;P1;durP2;ratioP2;P2;SDS_P1;SDS_P2;PMS_P1;PMS_P2;Temp;Humidity;BMP_temperature;BMP_pressure;BME280_temperature;BME280_humidity;BME280_pressure;Samples;Min_cycle;Max_cycle;Signal;HPM_P1;HPM_P2
2023/07/27 00:01:06;;;;;;;1.83;1.25;;;;;;;;;;9965632;28;20039;-68
2023/07/27 00:05:58;;;;;;;5.15;2.00;;;;;;;;;;9968452;28;20070;-67
2023/07/27 00:10:50;;;;;;;5.25;1.73;;;;;;;;;;9974680;28;20487;-67
2023/07/27 00:15:42;;;;;;;2.83;1.60;;;;;;;;;;9974307;28;20532;-68
2023/07/27 00:20:35;;;;;;;3.92;1.80;;;;;;;;;;9968427;28;20066;-67
2023/07/27 00:25:27;;;;;;;5.22;1.77;;;;;;;;;;9965924;28;20116;-67
2023/07/27 00:30:19;;;;;;;4.93;1.70;;;;;;;;;;9970316;28;20050;-69
2023/07/27 00:35:11;;;;;;;6.65;1.70;;;;;;;;;;9973715;28;20049;-67
2023/07/27 00:40:03;;;;;;;3.10;1.70;;;;;;;;;;9975029;28;20431;-68
2023/07/27 00:44:54;;;;;;;2.72;1.50;;;;;;;;;;9972188;28;20157;-66
2023/07/27 00:49:46;;;;;;;3.28;1.88;;;;;;;;;;9972342;28;20049;-65
2023/07/27 00:54:38;;;;;;;2.85;1.60;;;;;;;;;;9976548;28;20042;-66
2023/07/27 00:59:31;;;;;;;2.30;1.55;;;;;;;;;;9976946;28;20058;-65
2023/07/27 01:04:23;;;;;;;4.53;1.50;;;;;;;;;;9970441;28;20465;-67
2023/07/27 01:09:15;;;;;;;2.22;1.48;;;;;;;;;;9969272;28;20050;-66
2023/07/27 01:14:37;;;;;;;1.63;1.50;;;;;;;;;;9975699;28;20054;-70
2023/07/27 01:19:44;;;;;;;5.20;1.85;;;;;;;;;;9974294;28;20054;-68
2023/07/27 01:25:10;;;;;;;3.55;1.70;;;;;;;;;;9969267;28;20042;-68
2023/07/27 01:30:20;;;;;;;2.33;1.35;;;;;;;;;;9972682;28;20054;-67
2023/07/27 01:35:14;;;;;;;5.97;1.70;;;;;;;;;;9971516;28;20432;-69
2023/07/27 01:40:08;;;;;;;1.90;1.45;;;;;;;;;;10000582;28;20057;-66
2023/07/27 01:45:04;;;;;;;8.27;2.80;;;;;;;;;;9978349;28;20138;-66
2023/07/27 01:49:57;;;;;;;6.45;2.30;;;;;;;;;;10012466;28;20065;-68
2023/07/27 01:54:49;;;;;;;3.95;2.67;;;;;;;;;;9978602;28;20094;-67
2023/07/27 01:59:41;;;;;;;3.35;3.03;;;;;;;;;;9971678;28;20547;-68
2023/07/27 02:04:33;;;;;;;7.50;3.10;;;;;;;;;;9966188;28;20047;-67
2023/07/27 02:09:25;;;;;;;5.30;3.00;;;;;;;;;;9974790;28;20490;-67
2023/07/27 02:14:20;;;;;;;10.23;3.92;;;;;;;;;;9983345;28;20049;-68
2023/07/27 02:19:15;;;;;;;6.15;3.97;;;;;;;;;;9980945;28;20564;-68
2023/07/27 02:24:08;;;;;;;6.68;4.03;;;;;;;;;;9978360;28;20043;-66
2023/07/27 02:29:01;;;;;;;5.30;3.55;;;;;;;;;;9973627;28;20149;-67
2023/07/27 02:33:53;;;;;;;6.07;2.85;;;;;;;;;;9978286;28;20078;-67
2023/07/27 02:38:45;;;;;;;3.55;2.80;;;;;;;;;;9985780;28;20053;-68
2023/07/27 02:43:37;;;;;;;3.70;3.10;;;;;;;;;;9991848;28;20094;-67
2023/07/27 02:48:30;;;;;;;6.93;3.20;;;;;;;;;;9984315;28;20042;-68
2023/07/27 02:53:23;;;;;;;11.32;3.10;;;;;;;;;;9986337;28;20538;-68
2023/07/27 02:58:16;;;;;;;5.43;4.13;;;;;;;;;;9982620;28;20082;-68
2023/07/27 03:03:08;;;;;;;5.00;3.10;;;;;;;;;;9975505;28;20058;-68
2023/07/27 03:08:00;;;;;;;7.13;4.50;;;;;;;;;;9965642;28;20141;-68
2023/07/27 03:12:57;;;;;;;7.28;4.00;;;;;;;;;;9975463;28;20039;-68
2023/07/27 03:17:49;;;;;;;10.00;5.95;;;;;;;;;;9963608;28;20532;-68
2023/07/27 03:22:41;;;;;;;7.07;4.90;;;;;;;;;;9962410;28;20079;-69
2023/07/27 03:27:33;;;;;;;8.82;5.75;;;;;;;;;;9983903;28;20054;-68
2023/07/27 03:32:25;;;;;;;5.60;4.65;;;;;;;;;;9980187;28;20475;-67
2023/07/27 03:37:17;;;;;;;7.05;5.35;;;;;;;;;;9967740;28;20536;-67
2023/07/27 03:42:08;;;;;;;8.18;5.82;;;;;;;;;;9966062;28;20693;-67
2023/07/27 03:47:00;;;;;;;6.05;5.45;;;;;;;;;;9967179;28;20133;-68
2023/07/27 03:51:52;;;;;;;6.38;5.18;;;;;;;;;;9965407;28;20487;-67
2023/07/27 03:56:44;;;;;;;9.15;5.38;;;;;;;;;;9967561;28;20146;-68
2023/07/27 04:01:36;;;;;;;13.43;5.60;;;;;;;;;;9958640;28;20384;-68
2023/07/27 04:06:28;;;;;;;6.90;4.68;;;;;;;;;;9978207;28;20045;-68
2023/07/27 04:11:20;;;;;;;8.30;5.72;;;;;;;;;;9972598;28;20050;-68
2023/07/27 04:16:12;;;;;;;10.75;5.90;;;;;;;;;;9976500;28;20054;-67
2023/07/27 04:21:04;;;;;;;11.15;5.65;;;;;;;;;;9953137;28;20050;-67
2023/07/27 04:25:56;;;;;;;8.88;6.68;;;;;;;;;;9980839;28;20042;-67
2023/07/27 04:30:48;;;;;;;10.15;7.07;;;;;;;;;;9975152;28;20054;-66
2023/07/27 04:35:39;;;;;;;12.63;7.18;;;;;;;;;;9971388;28;20053;-67
2023/07/27 04:40:32;;;;;;;14.93;6.72;;;;;;;;;;9962960;28;20035;-67
2023/07/27 04:45:24;;;;;;;15.95;8.20;;;;;;;;;;9964075;28;20675;-67
2023/07/27 04:50:16;;;;;;;9.23;6.68;;;;;;;;;;9969696;28;20043;-67
2023/07/27 04:55:08;;;;;;;10.20;4.65;;;;;;;;;;9970203;28;20069;-68
2023/07/27 05:00:01;;;;;;;7.28;4.32;;;;;;;;;;9973712;28;20122;-68
2023/07/27 05:04:54;;;;;;;7.40;3.90;;;;;;;;;;9979330;28;20482;-70
2023/07/27 05:09:46;;;;;;;4.57;2.95;;;;;;;;;;9982577;28;20098;-68
2023/07/27 05:14:38;;;;;;;5.50;3.55;;;;;;;;;;9989800;28;20142;-69
2023/07/27 05:19:30;;;;;;;7.43;3.38;;;;;;;;;;9989966;28;20046;-69
2023/07/27 05:24:22;;;;;;;4.00;3.55;;;;;;;;;;9990236;28;20054;-68
2023/07/27 05:29:15;;;;;;;7.68;4.32;;;;;;;;;;9990083;28;20046;-67
2023/07/27 05:34:08;;;;;;;7.05;3.85;;;;;;;;;;9989487;28;20038;-68
2023/07/27 05:39:00;;;;;;;10.75;3.92;;;;;;;;;;9990299;28;20050;-68
2023/07/27 05:43:51;;;;;;;4.82;3.72;;;;;;;;;;9985547;28;20046;-68
2023/07/27 05:48:43;;;;;;;12.82;7.72;;;;;;;;;;9985986;28;20054;-68
2023/07/27 05:53:35;;;;;;;18.48;9.77;;;;;;;;;;9980530;28;20042;-68
2023/07/27 05:58:27;;;;;;;26.55;14.40;;;;;;;;;;9983986;28;20058;-72
2023/07/27 06:03:19;;;;;;;22.02;13.70;;;;;;;;;;9983328;28;20060;-71
2023/07/27 06:08:11;;;;;;;24.38;15.55;;;;;;;;;;9985916;28;20356;-71
2023/07/27 06:13:04;;;;;;;19.90;15.27;;;;;;;;;;9982942;28;20042;-70
2023/07/27 06:17:56;;;;;;;28.23;16.70;;;;;;;;;;9967968;28;20073;-71
2023/07/27 06:22:48;;;;;;;24.52;18.13;;;;;;;;;;9980111;28;20039;-71
2023/07/27 06:27:40;;;;;;;26.15;17.95;;;;;;;;;;9975958;28;20619;-71
2023/07/27 06:32:33;;;;;;;25.00;17.00;;;;;;;;;;9971065;28;20050;-71
2023/07/27 06:37:25;;;;;;;27.88;17.77;;;;;;;;;;9985474;28;20054;-70
2023/07/27 06:42:17;;;;;;;22.38;17.52;;;;;;;;;;9980822;28;20126;-71
2023/07/27 06:47:09;;;;;;;23.23;17.52;;;;;;;;;;9974623;28;20053;-72
2023/07/27 06:52:01;;;;;;;25.65;19.33;;;;;;;;;;9976148;28;20054;-71
2023/07/27 06:56:53;;;;;;;17.27;13.55;;;;;;;;;;9968751;28;20578;-70
2023/07/27 07:01:45;;;;;;;20.45;15.23;;;;;;;;;;9971868;28;20043;-71
2023/07/27 07:06:37;;;;;;;20.50;15.65;;;;;;;;;;9970319;28;20077;-71
2023/07/27 07:11:29;;;;;;;23.92;16.40;;;;;;;;;;9988888;28;20112;-78
2023/07/27 07:16:21;;;;;;;19.75;16.50;;;;;;;;;;9975718;28;20050;-79
2023/07/27 07:21:12;;;;;;;18.85;15.70;;;;;;;;;;9975213;28;20038;-78
2023/07/27 07:26:04;;;;;;;17.92;14.38;;;;;;;;;;9972906;28;20050;-77
2023/07/27 07:30:56;;;;;;;16.75;13.75;;;;;;;;;;9975980;28;20133;-79
2023/07/27 07:35:48;;;;;;;21.08;14.70;;;;;;;;;;9968991;28;20054;-79
2023/07/27 07:40:40;;;;;;;16.42;13.23;;;;;;;;;;9968552;28;20109;-79
2023/07/27 07:45:33;;;;;;;18.23;12.75;;;;;;;;;;9969989;28;20066;-78
2023/07/27 07:50:25;;;;;;;17.73;12.73;;;;;;;;;;9959425;28;20449;-79
2023/07/27 07:55:17;;;;;;;20.20;13.80;;;;;;;;;;9955471;28;20137;-79
2023/07/27 08:00:09;;;;;;;12.55;11.18;;;;;;;;;;9970845;28;20042;-78
2023/07/27 08:05:05;;;;;;;15.38;9.38;;;;;;;;;;9973227;28;20053;-78
2023/07/27 08:09:57;;;;;;;10.90;6.80;;;;;;;;;;9967246;28;20057;-77
2023/07/27 08:14:48;;;;;;;10.00;7.80;;;;;;;;;;9960389;28;20057;-77
2023/07/27 08:19:40;;;;;;;10.70;6.18;;;;;;;;;;9964107;28;20478;-78
2023/07/27 08:24:32;;;;;;;9.23;4.68;;;;;;;;;;9957432;28;20054;-78
2023/07/27 08:29:24;;;;;;;6.28;4.43;;;;;;;;;;9964437;28;20168;-78
2023/07/27 08:34:16;;;;;;;7.13;5.20;;;;;;;;;;9973480;28;20054;-79
2023/07/27 08:39:08;;;;;;;7.72;4.18;;;;;;;;;;9979575;28;20141;-79
2023/07/27 08:44:01;;;;;;;6.30;4.03;;;;;;;;;;9978288;28;20049;-79
2023/07/27 08:48:54;;;;;;;8.10;4.10;;;;;;;;;;9958919;28;20058;-80
2023/07/27 08:53:46;;;;;;;4.80;3.55;;;;;;;;;;9985125;28;20085;-80
2023/07/27 08:58:37;;;;;;;7.93;3.90;;;;;;;;;;9986989;28;20054;-79
2023/07/27 09:03:29;;;;;;;4.20;2.83;;;;;;;;;;9967344;28;20053;-78
2023/07/27 09:08:21;;;;;;;6.50;3.50;;;;;;;;;;9988329;28;20157;-77
2023/07/27 09:13:13;;;;;;;4.57;3.20;;;;;;;;;;9975643;28;20467;-71
2023/07/27 09:18:10;;;;;;;8.50;3.95;;;;;;;;;;9972416;28;20050;-74
2023/07/27 09:23:02;;;;;;;7.15;3.50;;;;;;;;;;9968347;28;20168;-79
2023/07/27 09:27:55;;;;;;;4.97;3.47;;;;;;;;;;9969880;28;20042;-78
2023/07/27 09:32:47;;;;;;;9.98;3.92;;;;;;;;;;9965291;28;20042;-77
2023/07/27 09:37:50;;;;;;;5.35;3.08;;;;;;;;;;9970794;28;20034;-79
2023/07/27 09:42:44;;;;;;;5.40;3.28;;;;;;;;;;9968124;28;20054;-81
2023/07/27 09:47:36;;;;;;;11.00;4.32;;;;;;;;;;9964904;28;20113;-82
2023/07/27 09:52:29;;;;;;;6.20;3.30;;;;;;;;;;9969816;28;20155;-80
2023/07/27 09:57:21;;;;;;;11.20;3.55;;;;;;;;;;9968739;28;20061;-77
2023/07/27 10:02:13;;;;;;;5.95;2.92;;;;;;;;;;9975886;28;20076;-87
2023/07/27 10:07:10;;;;;;;5.90;3.10;;;;;;;;;;9964353;28;20422;-86
2023/07/27 10:12:04;;;;;;;5.43;2.75;;;;;;;;;;9981310;28;20467;-86
2023/07/27 10:16:58;;;;;;;11.57;3.15;;;;;;;;;;9970500;28;20475;-79
2023/07/27 10:21:51;;;;;;;12.15;3.53;;;;;;;;;;9966387;28;20046;-84
2023/07/27 10:26:44;;;;;;;6.47;2.75;;;;;;;;;;9999328;28;20148;-86
2023/07/27 10:31:36;;;;;;;14.05;2.92;;;;;;;;;;9984309;28;20218;-87
2023/07/27 10:36:51;;;;;;;3.10;2.30;;;;;;;;;;10018773;28;20057;-88
2023/07/27 10:42:01;;;;;;;3.35;2.85;;;;;;;;;;10016687;28;20056;-87
2023/07/27 10:46:55;;;;;;;6.15;3.20;;;;;;;;;;10023416;28;20054;-88
2023/07/27 10:51:48;;;;;;;4.82;2.92;;;;;;;;;;9975627;28;20042;-88
2023/07/27 10:56:42;;;;;;;6.22;2.60;;;;;;;;;;10016073;28;20133;-88
2023/07/27 11:01:34;;;;;;;4.45;2.72;;;;;;;;;;9993704;28;20100;-87
2023/07/27 11:06:29;;;;;;;6.80;2.70;;;;;;;;;;9986967;28;20054;-87
2023/07/27 11:11:26;;;;;;;3.80;2.05;;;;;;;;;;9952689;28;20042;-88
2023/07/27 11:16:19;;;;;;;4.50;2.33;;;;;;;;;;9977117;28;20050;-87
2023/07/27 11:21:13;;;;;;;2.95;2.10;;;;;;;;;;9969698;28;20050;-83
2023/07/27 11:26:06;;;;;;;4.10;2.45;;;;;;;;;;9971708;28;20384;-83
2023/07/27 11:30:57;;;;;;;4.60;2.25;;;;;;;;;;9973989;28;20088;-85
2023/07/27 11:35:49;;;;;;;4.82;2.40;;;;;;;;;;9973582;28;20050;-85
2023/07/27 11:40:47;;;;;;;3.85;2.35;;;;;;;;;;9982427;28;20443;-87
2023/07/27 11:45:38;;;;;;;3.85;2.75;;;;;;;;;;9973119;28;20142;-85
2023/07/27 11:50:33;;;;;;;4.13;2.45;;;;;;;;;;9977522;28;20050;-84
2023/07/27 11:55:25;;;;;;;4.75;2.13;;;;;;;;;;9979023;28;20133;-85
2023/07/27 12:00:18;;;;;;;5.30;3.45;;;;;;;;;;10022841;28;20077;-84
2023/07/27 12:05:14;;;;;;;6.63;2.10;;;;;;;;;;10010273;28;20129;-85
2023/07/27 12:10:11;;;;;;;6.57;1.95;;;;;;;;;;9992217;28;20042;-81
2023/07/27 12:15:27;;;;;;;2.25;1.98;;;;;;;;;;9989803;28;20062;-85
2023/07/27 12:20:19;;;;;;;2.90;1.80;;;;;;;;;;9987446;28;20047;-85
2023/07/27 12:25:14;;;;;;;8.50;3.28;;;;;;;;;;10008530;28;20096;-85
2023/07/27 12:30:10;;;;;;;5.35;1.60;;;;;;;;;;10023273;28;20442;-88
2023/07/27 12:35:06;;;;;;;2.78;2.13;;;;;;;;;;9986907;28;20052;-84
2023/07/27 12:40:01;;;;;;;2.90;1.60;;;;;;;;;;9995752;28;20042;-84
2023/07/27 12:44:56;;;;;;;5.03;1.95;;;;;;;;;;9993658;28;20081;-83
2023/07/27 12:49:48;;;;;;;2.45;1.92;;;;;;;;;;10023586;28;20044;-84
2023/07/27 12:54:40;;;;;;;8.45;2.05;;;;;;;;;;10004171;28;20038;-84
2023/07/27 12:59:32;;;;;;;5.97;1.90;;;;;;;;;;9978087;28;20093;-84
2023/07/27 13:04:24;;;;;;;3.15;1.95;;;;;;;;;;9979411;28;20043;-83
2023/07/27 13:09:16;;;;;;;1.85;1.40;;;;;;;;;;9952746;28;20490;-84
2023/07/27 13:14:08;;;;;;;2.13;1.45;;;;;;;;;;9968143;28;20065;-81
2023/07/27 13:19:00;;;;;;;5.25;1.60;;;;;;;;;;9962608;28;20047;-79
2023/07/27 13:23:51;;;;;;;3.28;1.60;;;;;;;;;;9962684;28;20042;-86
2023/07/27 13:28:43;;;;;;;3.70;1.67;;;;;;;;;;9963235;28;20483;-82
2023/07/27 13:33:35;;;;;;;2.25;1.67;;;;;;;;;;9962464;28;20039;-75
2023/07/27 13:38:27;;;;;;;4.00;1.55;;;;;;;;;;9968304;28;20042;-83
2023/07/27 13:43:19;;;;;;;4.00;1.50;;;;;;;;;;9968941;28;20121;-78
2023/07/27 13:48:11;;;;;;;1.73;1.42;;;;;;;;;;9970115;28;20110;-79
2023/07/27 13:53:10;;;;;;;3.47;1.53;;;;;;;;;;9996907;28;20084;-72
2023/07/27 13:58:02;;;;;;;1.38;1.17;;;;;;;;;;10026256;28;20058;-72
2023/07/27 14:02:57;;;;;;;8.50;1.40;;;;;;;;;;10022221;28;20057;-73
2023/07/27 14:07:49;;;;;;;2.00;1.48;;;;;;;;;;10013297;28;20058;-73
2023/07/27 14:12:41;;;;;;;5.28;1.45;;;;;;;;;;9966882;28;20039;-71
2023/07/27 14:17:33;;;;;;;2.95;1.30;;;;;;;;;;9964793;28;20055;-72
2023/07/27 14:22:25;;;;;;;5.97;3.58;;;;;;;;;;10015500;28;20093;-73
2023/07/27 14:27:17;;;;;;;5.40;1.77;;;;;;;;;;10023754;28;20042;-74
2023/07/27 14:32:10;;;;;;;4.65;1.60;;;;;;;;;;9995883;28;20050;-74
2023/07/27 14:37:02;;;;;;;3.03;1.67;;;;;;;;;;9968732;28;20058;-73
2023/07/27 14:41:54;;;;;;;2.40;1.58;;;;;;;;;;9969753;28;20034;-78
2023/07/27 14:46:47;;;;;;;2.40;1.83;;;;;;;;;;9963531;28;20043;-79
2023/07/27 14:51:39;;;;;;;2.05;1.40;;;;;;;;;;9968258;28;20038;-76
2023/07/27 14:56:31;;;;;;;4.63;2.42;;;;;;;;;;9966095;28;20169;-77
2023/07/27 15:01:25;;;;;;;3.13;1.75;;;;;;;;;;9966187;28;20051;-79
2023/07/27 15:06:19;;;;;;;3.40;2.35;;;;;;;;;;9971407;28;20038;-78
2023/07/27 15:11:11;;;;;;;4.85;1.20;;;;;;;;;;9965934;28;20063;-78
2023/07/27 15:16:06;;;;;;;2.67;1.48;;;;;;;;;;9964020;28;20046;-77
2023/07/27 15:20:58;;;;;;;6.25;1.13;;;;;;;;;;9990416;28;20472;-72
2023/07/27 15:26:12;;;;;;;4.63;1.50;;;;;;;;;;9971821;28;20092;-74
2023/07/27 15:31:05;;;;;;;4.03;1.50;;;;;;;;;;9983282;28;20054;-67
2023/07/27 15:35:57;;;;;;;4.63;1.30;;;;;;;;;;9997140;28;20525;-69
2023/07/27 15:40:51;;;;;;;2.78;1.45;;;;;;;;;;10007317;28;20092;-69
2023/07/27 15:45:44;;;;;;;4.55;1.40;;;;;;;;;;9993173;28;20056;-69
2023/07/27 15:50:36;;;;;;;3.40;1.20;;;;;;;;;;9997723;28;20191;-70
2023/07/27 15:55:27;;;;;;;33.15;2.78;;;;;;;;;;10005551;28;20056;-70
2023/07/27 16:00:19;;;;;;;4.57;1.52;;;;;;;;;;10020592;28;20171;-72
2023/07/27 16:05:12;;;;;;;2.13;1.13;;;;;;;;;;10022008;28;20053;-72
2023/07/27 16:10:05;;;;;;;6.25;1.50;;;;;;;;;;10004576;28;20092;-71
2023/07/27 16:14:57;;;;;;;4.85;2.20;;;;;;;;;;9980643;28;20474;-70
2023/07/27 16:19:49;;;;;;;2.92;1.55;;;;;;;;;;9987768;28;20042;-70
2023/07/27 16:24:41;;;;;;;2.22;1.30;;;;;;;;;;9982439;28;20133;-71
2023/07/27 16:29:33;;;;;;;2.22;1.30;;;;;;;;;;9987267;28;20097;-74
2023/07/27 16:34:24;;;;;;;2.00;1.65;;;;;;;;;;9974291;28;20484;-73
2023/07/27 16:39:16;;;;;;;1.95;1.00;;;;;;;;;;9976685;28;20054;-73
2023/07/27 16:44:08;;;;;;;6.43;1.33;;;;;;;;;;9970025;28;20057;-73
2023/07/27 16:49:00;;;;;;;1.65;1.20;;;;;;;;;;9991170;28;20049;-73
2023/07/27 16:53:52;;;;;;;6.22;2.22;;;;;;;;;;10002480;28;20096;-73
2023/07/27 16:58:43;;;;;;;2.60;1.38;;;;;;;;;;10024639;28;20427;-74
2023/07/27 17:03:38;;;;;;;2.33;1.00;;;;;;;;;;10002046;28;20057;-73
2023/07/27 17:08:30;;;;;;;2.83;1.60;;;;;;;;;;9974448;28;20061;-74
2023/07/27 17:13:22;;;;;;;5.63;2.13;;;;;;;;;;10009033;28;20046;-73
2023/07/27 17:18:13;;;;;;;2.72;1.38;;;;;;;;;;10022419;28;20400;-74
2023/07/27 17:23:05;;;;;;;6.68;1.85;;;;;;;;;;10030933;28;20042;-74
2023/07/27 17:27:57;;;;;;;6.68;1.35;;;;;;;;;;10020699;28;20092;-75
2023/07/27 17:32:49;;;;;;;5.65;1.80;;;;;;;;;;9988070;28;20046;-74
2023/07/27 17:37:41;;;;;;;3.00;1.67;;;;;;;;;;9979053;28;20453;-73
2023/07/27 17:42:33;;;;;;;3.78;1.25;;;;;;;;;;9995265;28;20046;-74
2023/07/27 17:47:24;;;;;;;5.90;1.98;;;;;;;;;;10004120;28;20052;-74
2023/07/27 17:52:16;;;;;;;3.95;1.48;;;;;;;;;;9983691;28;20070;-73
2023/07/27 17:57:08;;;;;;;4.45;1.55;;;;;;;;;;9995003;28;20061;-70
2023/07/27 18:02:00;;;;;;;2.38;1.15;;;;;;;;;;10019859;28;20047;-74
2023/07/27 18:06:52;;;;;;;3.85;1.60;;;;;;;;;;10031069;28;20048;-72
2023/07/27 18:11:44;;;;;;;2.00;1.35;;;;;;;;;;10012727;28;20046;-73
2023/07/27 18:16:37;;;;;;;2.30;1.42;;;;;;;;;;10008298;28;20447;-74
2023/07/27 18:21:29;;;;;;;7.07;1.50;;;;;;;;;;10003856;28;20100;-73
2023/07/27 18:26:21;;;;;;;2.55;1.20;;;;;;;;;;9994488;28;20151;-73
2023/07/27 18:31:13;;;;;;;5.85;1.52;;;;;;;;;;9981785;28;20035;-73
2023/07/27 18:36:11;;;;;;;2.45;1.33;;;;;;;;;;10007373;28;20046;-75
2023/07/27 18:41:07;;;;;;;3.80;2.53;;;;;;;;;;10011391;28;20419;-74
2023/07/27 18:45:58;;;;;;;4.43;1.30;;;;;;;;;;10004665;28;20060;-74
2023/07/27 18:50:54;;;;;;;4.32;1.38;;;;;;;;;;10005058;28;20057;-74
2023/07/27 18:55:50;;;;;;;7.70;2.88;;;;;;;;;;9983058;28;20380;-74
2023/07/27 19:00:47;;;;;;;6.35;1.67;;;;;;;;;;9990258;28;20052;-74
2023/07/27 19:05:39;;;;;;;3.30;1.50;;;;;;;;;;10002367;28;20037;-73
2023/07/27 19:10:30;;;;;;;3.13;1.65;;;;;;;;;;10002522;28;20038;-74
2023/07/27 19:15:22;;;;;;;3.78;1.77;;;;;;;;;;10005593;28;20053;-73
2023/07/27 19:20:14;;;;;;;4.63;1.40;;;;;;;;;;10006673;28;20417;-73
2023/07/27 19:25:07;;;;;;;10.68;2.13;;;;;;;;;;9990488;28;20048;-73
2023/07/27 19:29:58;;;;;;;6.40;1.60;;;;;;;;;;9981598;28;20481;-72
2023/07/27 19:34:50;;;;;;;2.72;1.70;;;;;;;;;;9989561;28;20097;-73
2023/07/27 19:39:42;;;;;;;10.15;2.95;;;;;;;;;;10006108;28;20057;-72
2023/07/27 19:44:34;;;;;;;5.70;1.50;;;;;;;;;;9977544;28;20090;-73
2023/07/27 19:49:26;;;;;;;3.30;1.88;;;;;;;;;;9992250;28;20044;-73
2023/07/27 19:54:18;;;;;;;3.50;1.92;;;;;;;;;;9989015;28;20046;-73
2023/07/27 19:59:10;;;;;;;5.55;1.67;;;;;;;;;;9985071;28;20125;-73
2023/07/27 20:04:02;;;;;;;4.35;2.05;;;;;;;;;;10021181;28;20479;-76
2023/07/27 20:08:55;;;;;;;6.85;1.65;;;;;;;;;;10022857;28;20136;-76
2023/07/27 20:13:47;;;;;;;5.35;2.05;;;;;;;;;;10022669;28;20112;-75
2023/07/27 20:18:42;;;;;;;5.30;2.20;;;;;;;;;;10023671;28;20050;-76
2023/07/27 20:23:37;;;;;;;3.97;1.90;;;;;;;;;;10025090;28;20464;-76
2023/07/27 20:28:29;;;;;;;3.38;2.00;;;;;;;;;;10026621;28;20034;-75
2023/07/27 20:33:20;;;;;;;5.30;2.70;;;;;;;;;;10025832;28;20046;-76
2023/07/27 20:38:12;;;;;;;4.22;1.98;;;;;;;;;;10025795;28;20433;-75
2023/07/27 20:43:04;;;;;;;2.63;1.88;;;;;;;;;;10029299;28;20067;-76
2023/07/27 20:47:56;;;;;;;3.08;2.08;;;;;;;;;;10029427;28;20369;-75
2023/07/27 20:52:49;;;;;;;3.40;1.60;;;;;;;;;;10024471;28;20117;-74
2023/07/27 20:57:44;;;;;;;3.83;1.70;;;;;;;;;;10020293;28;20054;-75
2023/07/27 21:02:37;;;;;;;7.50;2.00;;;;;;;;;;10033400;28;20042;-74
2023/07/27 21:07:29;;;;;;;6.03;2.00;;;;;;;;;;10019981;28;20456;-74
2023/07/27 21:12:21;;;;;;;5.88;1.77;;;;;;;;;;10033378;28;20050;-73
2023/07/27 21:17:13;;;;;;;4.43;1.80;;;;;;;;;;10032595;28;20534;-74
2023/07/27 21:22:05;;;;;;;6.65;1.83;;;;;;;;;;10032611;28;20045;-75
2023/07/27 21:26:57;;;;;;;7.68;2.22;;;;;;;;;;10032607;28;20092;-76
2023/07/27 21:31:49;;;;;;;3.92;2.00;;;;;;;;;;10032389;28;20037;-75
2023/07/27 21:36:40;;;;;;;2.63;2.10;;;;;;;;;;10032276;28;20045;-75
2023/07/27 21:41:32;;;;;;;2.67;1.75;;;;;;;;;;10031724;28;20053;-75
2023/07/27 21:46:24;;;;;;;4.05;2.35;;;;;;;;;;10032024;28;20046;-75
2023/07/27 21:51:16;;;;;;;3.65;1.80;;;;;;;;;;10031775;28;20137;-75
2023/07/27 21:56:08;;;;;;;9.93;2.70;;;;;;;;;;10029623;28;20054;-75
2023/07/27 22:01:00;;;;;;;6.93;2.30;;;;;;;;;;10031302;28;20126;-76
2023/07/27 22:05:52;;;;;;;8.68;2.50;;;;;;;;;;10029736;28;20096;-74
2023/07/27 22:10:43;;;;;;;5.35;1.77;;;;;;;;;;10017694;28;20365;-74
2023/07/27 22:15:35;;;;;;;4.35;2.72;;;;;;;;;;10031058;28;20046;-74
2023/07/27 22:20:27;;;;;;;4.78;2.03;;;;;;;;;;10008242;28;20153;-74
2023/07/27 22:25:19;;;;;;;4.53;2.13;;;;;;;;;;10000241;28;20038;-73
2023/07/27 22:30:11;;;;;;;9.18;2.45;;;;;;;;;;10022009;28;20104;-73
2023/07/27 22:35:04;;;;;;;3.65;2.50;;;;;;;;;;10025823;28;20033;-75
2023/07/27 22:39:55;;;;;;;4.57;2.85;;;;;;;;;;10011899;28;20198;-72
2023/07/27 22:44:47;;;;;;;4.97;1.75;;;;;;;;;;9987304;28;20042;-74
2023/07/27 22:49:40;;;;;;;2.47;2.17;;;;;;;;;;9988450;28;20047;-75
2023/07/27 22:54:32;;;;;;;3.25;2.03;;;;;;;;;;9972735;28;20049;-75
2023/07/27 22:59:24;;;;;;;4.13;2.15;;;;;;;;;;9971108;28;20047;-73
2023/07/27 23:04:16;;;;;;;3.22;2.42;;;;;;;;;;9969158;28;20108;-74
2023/07/27 23:09:08;;;;;;;4.45;3.10;;;;;;;;;;9967307;28;20093;-75
2023/07/27 23:14:00;;;;;;;3.15;2.45;;;;;;;;;;9967585;28;20035;-73
2023/07/27 23:18:52;;;;;;;5.57;2.13;;;;;;;;;;9984522;28;20461;-75
2023/07/27 23:23:44;;;;;;;2.33;1.92;;;;;;;;;;9970640;28;20035;-70
2023/07/27 23:28:35;;;;;;;2.28;1.95;;;;;;;;;;9970244;28;20113;-76
2023/07/27 23:33:27;;;;;;;2.33;1.90;;;;;;;;;;9974695;28;20112;-75
2023/07/27 23:38:19;;;;;;;3.85;1.80;;;;;;;;;;9984263;28;20065;-74
2023/07/27 23:43:11;;;;;;;4.13;2.15;;;;;;;;;;9968403;28;20042;-74
2023/07/27 23:48:04;;;;;;;4.07;1.70;;;;;;;;;;9966540;28;20086;-73
2023/07/27 23:52:56;;;;;;;4.70;1.98;;;;;;;;;;9984303;28;20046;-73
2023/07/27 23:57:49;;;;;;;2.75;2.10;;;;;;;;;;9967036;28;20054;-72
